Terminal Aerodrome Forecast
Issued by NWS

Home | Current Version | Previous Version | Text Only | Print | Product List | Glossary On
Versions: 1 2 3 4 5 6 7 8 9 10 11 12 13 14 15 16
000
FTUS43 KILX 200500
TAFCMI
TAF
KCMI 200523Z 2006/2106 16007KT P6SM SCT250
     FM201400 21012KT P6SM SCT120 BKN250
     FM201700 23015G22KT P6SM SCT040 BKN250
     FM202000 23014G22KT P6SM VCTS SCT035CB BKN050
      TEMPO 2022/2101 4SM TSRA OVC035CB
     FM210200 23008KT P6SM SCT040=

USA.gov is the U.S. government's official web portal to all federal, state and local government web resources and services.